createdAt,value
2022-11-29T00:02:59.434Z,10.83
2022-11-29T00:10:39.051Z,8.00
2022-11-29T00:14:21.980Z,8.37
2022-11-29T00:18:04.820Z,12.17
2022-11-29T00:21:46.926Z,7.30
2022-11-29T00:25:29.334Z,7.77
2022-11-29T00:29:13.353Z,7.73
2022-11-29T02:05:42.604Z,6.17
2022-11-29T02:09:24.490Z,6.60
2022-11-29T02:14:02.947Z,6.13
2022-11-29T02:18:24.096Z,11.30
2022-11-29T02:31:35.004Z,6.13
2022-11-29T02:35:55.405Z,10.07
2022-11-29T02:40:14.170Z,6.37
2022-11-29T02:53:13.656Z,9.70
2022-11-29T02:57:28.650Z,6.15
2022-11-29T03:01:26.045Z,8.77
2022-11-29T03:05:30.109Z,11.70
2022-11-29T03:09:24.095Z,8.13
2022-11-29T03:13:16.964Z,6.50
2022-11-29T03:17:28.339Z,6.03
2022-11-29T03:21:38.919Z,5.50
2022-11-29T03:25:29.245Z,5.90
2022-11-29T03:30:01.858Z,6.53
2022-11-29T03:33:58.992Z,7.93
2022-11-29T03:37:48.951Z,7.40
2022-11-29T03:42:00.179Z,6.37
2022-11-29T03:46:06.938Z,5.67
2022-11-29T03:50:07.906Z,5.72
2022-11-29T03:58:10.097Z,5.17
2022-11-29T04:02:10.324Z,5.63
2022-11-29T04:06:07.275Z,5.47
2022-11-29T04:14:10.479Z,6.90
2022-11-29T04:18:26.476Z,7.27
2022-11-29T04:22:27.863Z,5.63
2022-11-29T04:26:36.006Z,5.00
2022-11-29T04:30:22.667Z,5.07
2022-11-29T04:38:28.793Z,5.97
2022-11-29T04:42:22.912Z,5.40
2022-11-29T04:46:53.181Z,5.17
2022-11-29T04:51:06.655Z,4.13
2022-11-29T04:55:24.981Z,5.10
2022-11-29T04:59:23.375Z,4.63
2022-11-29T05:03:16.640Z,5.43
2022-11-29T05:07:27.641Z,5.70
2022-11-29T05:11:26.549Z,5.87
2022-11-29T05:15:47.860Z,6.27
2022-11-29T05:19:50.912Z,6.50
2022-11-29T05:23:58.782Z,10.70
2022-11-29T05:28:09.689Z,6.27
2022-11-29T05:32:32.869Z,6.47
2022-11-29T05:36:33.234Z,8.57
2022-11-29T05:40:42.223Z,7.17
2022-11-29T05:44:48.806Z,5.13
2022-11-29T05:49:25.684Z,7.93
2022-11-29T05:58:04.119Z,6.03
2022-11-29T06:02:12.561Z,8.15
2022-11-29T06:06:03.158Z,6.63
2022-11-29T06:09:51.400Z,8.60
2022-11-29T06:13:38.686Z,8.33
2022-11-29T06:18:06.350Z,10.23
2022-11-29T06:22:21.452Z,9.88
2022-11-29T06:43:23.784Z,8.13
2022-11-29T06:47:09.483Z,10.87
2022-11-29T06:51:00.108Z,13.43
2022-11-29T06:55:01.452Z,11.13
2022-11-29T06:58:58.773Z,15.17
2022-11-29T07:03:06.787Z,14.63
2022-11-29T07:06:49.051Z,22.23
2022-11-29T07:14:14.203Z,20.87
2022-11-29T07:18:22.610Z,22.53
2022-11-29T07:22:08.389Z,14.80
2022-11-29T07:26:15.501Z,21.88
2022-11-29T07:30:10.879Z,21.50
2022-11-29T07:34:10.968Z,19.57
2022-11-29T07:38:14.236Z,27.30
2022-11-29T07:42:18.445Z,32.20
2022-11-29T07:50:14.531Z,30.60
2022-11-29T07:53:56.588Z,32.77
2022-11-29T07:57:38.653Z,26.80
2022-11-29T08:01:20.556Z,36.17
2022-11-29T08:05:04.746Z,28.37
2022-11-29T08:08:47.028Z,28.10
2022-11-29T08:12:29.331Z,32.57
2022-11-29T08:16:16.563Z,25.63
2022-11-29T08:20:02.637Z,23.97
2022-11-29T08:24:17.583Z,24.70
2022-11-29T08:28:03.950Z,28.83
2022-11-29T08:31:46.557Z,29.02
2022-11-29T08:40:42.333Z,25.60
2022-11-29T08:44:24.358Z,29.70
2022-11-29T08:48:06.845Z,21.50
2022-11-29T08:51:51.085Z,26.27
2022-11-29T08:55:43.152Z,23.93
2022-11-29T08:59:30.531Z,30.33
2022-11-29T09:07:58.817Z,24.93
2022-11-29T09:11:40.895Z,23.27
2022-11-29T09:15:28.034Z,26.93
2022-11-29T09:19:13.941Z,19.93
2022-11-29T09:22:56.545Z,18.08
2022-11-29T09:26:41.138Z,15.30
2022-11-29T09:30:23.893Z,13.83
2022-11-29T09:34:05.902Z,17.13
2022-11-29T09:37:53.206Z,14.93
2022-11-29T09:42:04.135Z,12.10
2022-11-29T09:45:58.905Z,14.80
2022-11-29T09:49:58.674Z,13.90
2022-11-29T09:54:22.169Z,10.40
2022-11-29T09:58:09.679Z,10.97
2022-11-29T10:02:03.519Z,19.47
2022-11-29T10:05:50.102Z,15.80
2022-11-29T10:13:24.147Z,14.97
2022-11-29T10:17:19.331Z,11.33
2022-11-29T10:21:11.122Z,15.17
2022-11-29T10:24:58.806Z,24.73
2022-11-29T10:32:49.168Z,16.37
2022-11-29T10:41:19.093Z,36.87
2022-11-29T10:45:02.036Z,21.63
2022-11-29T10:48:44.337Z,28.20
2022-11-29T10:52:26.505Z,27.87
2022-11-29T10:56:31.357Z,10.97
2022-11-29T11:00:14.095Z,38.87
2022-11-29T11:03:57.815Z,14.97
2022-11-29T11:12:26.175Z,12.77
2022-11-29T11:26:23.710Z,27.47
2022-11-29T11:34:43.667Z,16.83
2022-11-29T11:38:28.829Z,14.23
2022-11-29T11:42:45.933Z,16.73
2022-11-29T11:50:44.960Z,18.80
2022-11-29T11:54:31.020Z,22.20
2022-11-29T11:58:32.931Z,12.53
2022-11-29T12:02:40.885Z,17.97
2022-11-29T12:06:29.605Z,13.60
2022-11-29T12:15:12.887Z,12.07
2022-11-29T12:19:21.478Z,18.10
2022-11-29T12:24:03.511Z,13.20
2022-11-29T12:28:02.050Z,13.70
2022-11-29T12:32:07.825Z,13.33
2022-11-29T12:36:13.884Z,11.90
2022-11-29T12:40:34.135Z,12.30
2022-11-29T12:44:45.412Z,22.07
2022-11-29T12:53:47.442Z,13.63
2022-11-29T12:58:03.818Z,17.17
2022-11-29T13:02:03.147Z,13.73
2022-11-29T13:06:13.830Z,13.33
2022-11-29T13:10:18.084Z,11.30
2022-11-29T13:14:43.868Z,22.40
2022-11-29T13:18:40.146Z,13.67
2022-11-29T13:22:58.188Z,15.10
2022-11-29T13:26:55.843Z,14.20
2022-11-29T13:30:50.949Z,16.03
2022-11-29T13:34:44.737Z,11.13
2022-11-29T13:39:15.393Z,10.07
2022-11-29T13:43:24.115Z,12.43
2022-11-29T13:47:19.655Z,12.27
2022-11-29T13:51:41.117Z,13.63
2022-11-29T13:55:34.138Z,13.17
2022-11-29T13:59:31.944Z,13.03
2022-11-29T14:03:28.585Z,9.53
2022-11-29T14:07:19.851Z,9.32
2022-11-29T14:11:09.671Z,10.83
2022-11-29T14:19:38.423Z,14.43
2022-11-29T14:24:04.392Z,17.47
2022-11-29T14:28:07.455Z,12.80
2022-11-29T14:31:52.095Z,10.87
2022-11-29T14:35:50.211Z,12.38
2022-11-29T14:39:41.837Z,11.38
2022-11-29T14:43:36.411Z,14.60
2022-11-29T14:47:30.149Z,16.07
2022-11-29T14:51:15.710Z,15.17
2022-11-29T14:55:21.246Z,13.87
2022-11-29T14:59:43.100Z,12.63
2022-11-29T15:03:33.408Z,10.10
2022-11-29T15:07:19.809Z,11.30
2022-11-29T15:11:34.448Z,8.75
2022-11-29T15:15:30.614Z,9.13
2022-11-29T15:19:47.875Z,11.68
2022-11-29T15:23:41.551Z,12.88
2022-11-29T15:27:24.469Z,12.97
2022-11-29T15:31:14.014Z,10.73
2022-11-29T15:34:57.239Z,12.73
2022-11-29T15:38:51.044Z,10.83
2022-11-29T15:43:11.791Z,12.10
2022-11-29T15:46:53.749Z,13.87
2022-11-29T15:50:37.655Z,19.97
2022-11-29T15:54:47.558Z,14.30
2022-11-29T15:58:35.399Z,13.33
2022-11-29T16:02:19.887Z,10.23
2022-11-29T16:06:53.695Z,14.40
2022-11-29T16:10:48.785Z,12.30
2022-11-29T16:14:34.189Z,12.07
2022-11-29T16:18:23.764Z,12.53
2022-11-29T16:22:16.440Z,12.30
2022-11-29T16:26:04.911Z,11.43
2022-11-29T16:29:58.823Z,19.30
2022-11-29T16:33:42.897Z,13.70
2022-11-29T16:37:31.959Z,13.73
2022-11-29T16:45:40.162Z,14.55
2022-11-29T16:49:40.636Z,13.10
2022-11-29T16:53:52.304Z,11.77
2022-11-29T16:57:41.466Z,13.03
2022-11-29T17:01:48.327Z,12.40
2022-11-29T17:05:37.965Z,16.45
2022-11-29T17:09:31.418Z,14.47
2022-11-29T17:13:15.080Z,14.10
2022-11-29T17:17:02.987Z,10.33
2022-11-29T17:20:45.651Z,10.80
2022-11-29T17:24:28.628Z,13.40
2022-11-29T17:28:10.757Z,11.77
2022-11-29T17:31:59.468Z,11.80
2022-11-29T17:35:46.065Z,15.20
2022-11-29T17:39:32.220Z,11.45
2022-11-29T17:43:15.766Z,10.45
2022-11-29T17:47:01.324Z,10.77
2022-11-29T17:50:43.459Z,8.37
2022-11-29T17:54:28.681Z,6.93
2022-11-29T17:58:11.877Z,7.70
2022-11-29T18:01:55.270Z,8.07
2022-11-29T18:05:40.821Z,10.57
2022-11-29T18:09:23.234Z,10.90
2022-11-29T18:13:13.694Z,8.90
2022-11-29T18:16:57.965Z,10.60
2022-11-29T18:20:43.707Z,11.63
2022-11-29T18:24:27.987Z,10.93
2022-11-29T18:28:15.472Z,10.97
2022-11-29T18:31:59.382Z,10.63
2022-11-29T18:35:41.729Z,14.00
2022-11-29T18:39:27.488Z,13.37
2022-11-29T18:43:11.057Z,11.47
2022-11-29T18:46:53.791Z,15.20
2022-11-29T18:50:42.004Z,17.77
2022-11-29T18:54:24.629Z,13.93
2022-11-29T18:58:10.086Z,15.63
2022-11-29T19:01:54.568Z,13.33
2022-11-29T19:05:39.622Z,14.93
2022-11-29T19:09:22.519Z,12.97
2022-11-29T19:13:06.136Z,11.30
2022-11-29T19:16:51.102Z,12.70
2022-11-29T19:20:34.336Z,16.63
2022-11-29T19:24:18.801Z,13.33
2022-11-29T19:28:03.454Z,14.63
2022-11-29T19:31:50.210Z,15.23
2022-11-29T19:39:17.388Z,14.80
2022-11-29T19:43:00.009Z,14.83
2022-11-29T19:46:53.798Z,16.23
2022-11-29T19:50:38.509Z,15.47
2022-11-29T19:55:04.692Z,17.47
2022-11-29T19:58:47.285Z,13.77
2022-11-29T20:02:32.081Z,17.43
2022-11-29T20:06:16.033Z,18.23
2022-11-29T20:10:03.797Z,17.10
2022-11-29T20:13:47.993Z,17.90
2022-11-29T20:17:30.319Z,20.63
2022-11-29T20:21:16.497Z,16.70
2022-11-29T20:25:01.835Z,17.67
2022-11-29T20:28:47.101Z,16.63
2022-11-29T20:32:35.011Z,19.03
2022-11-29T20:36:27.051Z,19.03
2022-11-29T20:40:20.327Z,22.27
2022-11-29T20:44:06.365Z,19.23
2022-11-29T20:48:00.955Z,19.13
2022-11-29T20:52:08.781Z,17.97
2022-11-29T20:55:51.313Z,17.93
2022-11-29T20:59:36.707Z,20.17
2022-11-29T21:03:21.324Z,26.80
2022-11-29T21:07:05.955Z,19.57
2022-11-29T21:10:54.363Z,18.43
2022-11-29T21:18:58.185Z,15.97
2022-11-29T21:23:03.449Z,18.70
2022-11-29T21:26:52.126Z,18.13
2022-11-29T21:30:45.271Z,15.40
2022-11-29T21:34:29.085Z,18.43
2022-11-29T21:38:22.047Z,19.73
2022-11-29T21:42:12.568Z,15.77
2022-11-29T21:45:56.095Z,19.03
2022-11-29T21:49:44.298Z,21.23
2022-11-29T21:53:33.077Z,19.13
2022-11-29T21:57:19.220Z,19.13
2022-11-29T22:01:20.620Z,17.15
2022-11-29T22:05:04.307Z,16.67
2022-11-29T22:08:54.203Z,18.70
2022-11-29T22:12:38.252Z,19.83
2022-11-29T22:16:23.573Z,42.40
2022-11-29T22:20:37.617Z,20.27
2022-11-29T22:24:23.752Z,19.63
2022-11-29T22:28:07.506Z,19.88
2022-11-29T22:31:57.086Z,20.10
2022-11-29T22:35:48.793Z,21.43
2022-11-29T22:39:39.266Z,20.40
2022-11-29T22:43:22.644Z,20.43
2022-11-29T22:47:05.771Z,22.70
2022-11-29T22:50:55.032Z,20.83
2022-11-29T22:54:40.485Z,21.77
2022-11-29T23:02:54.986Z,18.10
2022-11-29T23:21:33.716Z,23.73
2022-11-29T23:25:23.703Z,23.43
2022-11-29T23:29:34.562Z,22.07
2022-11-29T23:33:17.263Z,21.00
2022-11-29T23:37:04.036Z,25.80
2022-11-29T23:40:49.617Z,21.60
2022-11-29T23:58:38.058Z,21.23
